sensor_id;sensor_type;location;lat;lon;timestamp;P1;durP1;ratioP1;P2;durP2;ratioP2
21239;SDS011;10778;48.962;9.018;2023-09-07T00:01:44;5.32;;;4.10;;
21239;SDS011;10778;48.962;9.018;2023-09-07T00:04:11;4.90;;;4.03;;
21239;SDS011;10778;48.962;9.018;2023-09-07T00:06:40;4.60;;;3.95;;
21239;SDS011;10778;48.962;9.018;2023-09-07T00:09:09;5.90;;;4.20;;
21239;SDS011;10778;48.962;9.018;2023-09-07T00:11:37;5.53;;;4.40;;
21239;SDS011;10778;48.962;9.018;2023-09-07T00:14:03;5.63;;;4.05;;
21239;SDS011;10778;48.962;9.018;2023-09-07T00:16:33;5.60;;;3.92;;
21239;SDS011;10778;48.962;9.018;2023-09-07T00:19:04;5.72;;;4.68;;
21239;SDS011;10778;48.962;9.018;2023-09-07T00:21:30;5.30;;;4.15;;
21239;SDS011;10778;48.962;9.018;2023-09-07T00:23:56;7.43;;;4.35;;
21239;SDS011;10778;48.962;9.018;2023-09-07T00:26:22;4.97;;;4.15;;
21239;SDS011;10778;48.962;9.018;2023-09-07T00:28:48;5.38;;;4.10;;
21239;SDS011;10778;48.962;9.018;2023-09-07T00:31:14;6.15;;;4.15;;
21239;SDS011;10778;48.962;9.018;2023-09-07T00:33:41;5.20;;;4.20;;
21239;SDS011;10778;48.962;9.018;2023-09-07T00:36:06;5.72;;;4.03;;
21239;SDS011;10778;48.962;9.018;2023-09-07T00:38:33;6.63;;;4.03;;
21239;SDS011;10778;48.962;9.018;2023-09-07T00:40:59;5.55;;;4.35;;
21239;SDS011;10778;48.962;9.018;2023-09-07T00:43:25;6.60;;;4.45;;
21239;SDS011;10778;48.962;9.018;2023-09-07T00:45:51;5.30;;;4.38;;
21239;SDS011;10778;48.962;9.018;2023-09-07T00:48:17;5.28;;;3.85;;
21239;SDS011;10778;48.962;9.018;2023-09-07T00:50:43;8.52;;;4.30;;
21239;SDS011;10778;48.962;9.018;2023-09-07T00:53:10;5.88;;;4.13;;
21239;SDS011;10778;48.962;9.018;2023-09-07T00:55:36;5.40;;;4.25;;
21239;SDS011;10778;48.962;9.018;2023-09-07T00:58:06;5.05;;;4.40;;
21239;SDS011;10778;48.962;9.018;2023-09-07T01:00:33;5.78;;;4.50;;
21239;SDS011;10778;48.962;9.018;2023-09-07T01:03:00;6.78;;;4.60;;
21239;SDS011;10778;48.962;9.018;2023-09-07T01:05:32;7.22;;;4.50;;
21239;SDS011;10778;48.962;9.018;2023-09-07T01:08:19;5.68;;;4.05;;
21239;SDS011;10778;48.962;9.018;2023-09-07T01:10:57;5.30;;;4.03;;
21239;SDS011;10778;48.962;9.018;2023-09-07T01:13:23;5.68;;;4.30;;
21239;SDS011;10778;48.962;9.018;2023-09-07T01:15:49;7.05;;;4.60;;
21239;SDS011;10778;48.962;9.018;2023-09-07T01:18:15;6.68;;;4.70;;
21239;SDS011;10778;48.962;9.018;2023-09-07T01:20:43;7.95;;;4.80;;
21239;SDS011;10778;48.962;9.018;2023-09-07T01:23:10;5.78;;;4.70;;
21239;SDS011;10778;48.962;9.018;2023-09-07T01:25:39;7.28;;;4.40;;
21239;SDS011;10778;48.962;9.018;2023-09-07T01:28:06;6.25;;;4.72;;
21239;SDS011;10778;48.962;9.018;2023-09-07T01:30:34;6.70;;;4.70;;
21239;SDS011;10778;48.962;9.018;2023-09-07T01:33:02;6.88;;;4.50;;
21239;SDS011;10778;48.962;9.018;2023-09-07T01:35:29;7.32;;;4.28;;
21239;SDS011;10778;48.962;9.018;2023-09-07T01:37:57;6.57;;;4.50;;
21239;SDS011;10778;48.962;9.018;2023-09-07T01:40:23;9.30;;;4.38;;
21239;SDS011;10778;48.962;9.018;2023-09-07T01:42:49;6.18;;;4.35;;
21239;SDS011;10778;48.962;9.018;2023-09-07T01:45:15;5.25;;;4.40;;
21239;SDS011;10778;48.962;9.018;2023-09-07T01:47:41;6.55;;;4.30;;
21239;SDS011;10778;48.962;9.018;2023-09-07T01:50:07;4.47;;;4.07;;
21239;SDS011;10778;48.962;9.018;2023-09-07T01:52:33;7.15;;;4.53;;
21239;SDS011;10778;48.962;9.018;2023-09-07T01:54:59;4.97;;;4.20;;
21239;SDS011;10778;48.962;9.018;2023-09-07T01:57:25;7.03;;;4.60;;
21239;SDS011;10778;48.962;9.018;2023-09-07T01:59:51;6.30;;;4.47;;
21239;SDS011;10778;48.962;9.018;2023-09-07T02:02:17;6.78;;;4.35;;
21239;SDS011;10778;48.962;9.018;2023-09-07T02:04:43;6.82;;;4.32;;
21239;SDS011;10778;48.962;9.018;2023-09-07T02:07:11;5.95;;;4.20;;
21239;SDS011;10778;48.962;9.018;2023-09-07T02:09:39;6.85;;;4.47;;
21239;SDS011;10778;48.962;9.018;2023-09-07T02:12:05;6.68;;;4.30;;
21239;SDS011;10778;48.962;9.018;2023-09-07T02:14:31;6.32;;;4.20;;
21239;SDS011;10778;48.962;9.018;2023-09-07T02:16:57;5.38;;;4.35;;
21239;SDS011;10778;48.962;9.018;2023-09-07T02:19:23;6.13;;;4.18;;
21239;SDS011;10778;48.962;9.018;2023-09-07T02:21:49;5.75;;;4.63;;
21239;SDS011;10778;48.962;9.018;2023-09-07T02:24:17;7.05;;;4.75;;
21239;SDS011;10778;48.962;9.018;2023-09-07T02:26:43;6.30;;;5.13;;
21239;SDS011;10778;48.962;9.018;2023-09-07T02:29:11;8.77;;;5.55;;
21239;SDS011;10778;48.962;9.018;2023-09-07T02:31:39;7.60;;;4.68;;
21239;SDS011;10778;48.962;9.018;2023-09-07T02:34:05;9.40;;;5.70;;
21239;SDS011;10778;48.962;9.018;2023-09-07T02:36:32;8.75;;;5.70;;
21239;SDS011;10778;48.962;9.018;2023-09-07T02:38:59;8.15;;;5.60;;
21239;SDS011;10778;48.962;9.018;2023-09-07T02:41:25;7.32;;;5.80;;
21239;SDS011;10778;48.962;9.018;2023-09-07T02:43:51;9.20;;;5.82;;
21239;SDS011;10778;48.962;9.018;2023-09-07T02:49:18;8.07;;;5.65;;
21239;SDS011;10778;48.962;9.018;2023-09-07T02:51:44;10.13;;;5.82;;
21239;SDS011;10778;48.962;9.018;2023-09-07T02:54:10;7.38;;;5.68;;
21239;SDS011;10778;48.962;9.018;2023-09-07T02:56:36;8.80;;;5.55;;
21239;SDS011;10778;48.962;9.018;2023-09-07T02:59:03;8.77;;;5.45;;
21239;SDS011;10778;48.962;9.018;2023-09-07T03:01:30;8.30;;;5.68;;
21239;SDS011;10778;48.962;9.018;2023-09-07T03:03:56;7.85;;;5.32;;
21239;SDS011;10778;48.962;9.018;2023-09-07T03:06:22;7.57;;;5.60;;
21239;SDS011;10778;48.962;9.018;2023-09-07T03:08:51;7.43;;;5.47;;
21239;SDS011;10778;48.962;9.018;2023-09-07T03:11:20;6.70;;;5.05;;
21239;SDS011;10778;48.962;9.018;2023-09-07T03:17:36;8.18;;;5.18;;
21239;SDS011;10778;48.962;9.018;2023-09-07T03:20:02;7.90;;;5.50;;
21239;SDS011;10778;48.962;9.018;2023-09-07T03:22:41;7.57;;;4.85;;
21239;SDS011;10778;48.962;9.018;2023-09-07T03:25:08;7.38;;;4.70;;
21239;SDS011;10778;48.962;9.018;2023-09-07T03:27:36;6.00;;;4.20;;
21239;SDS011;10778;48.962;9.018;2023-09-07T03:30:03;7.28;;;4.50;;
21239;SDS011;10778;48.962;9.018;2023-09-07T03:32:32;5.18;;;4.25;;
21239;SDS011;10778;48.962;9.018;2023-09-07T03:38:24;6.85;;;4.70;;
21239;SDS011;10778;48.962;9.018;2023-09-07T03:40:50;8.05;;;4.85;;
21239;SDS011;10778;48.962;9.018;2023-09-07T03:43:18;5.88;;;4.70;;
21239;SDS011;10778;48.962;9.018;2023-09-07T03:45:45;7.00;;;4.53;;
21239;SDS011;10778;48.962;9.018;2023-09-07T03:48:11;6.30;;;3.90;;
21239;SDS011;10778;48.962;9.018;2023-09-07T03:50:38;5.82;;;3.95;;
21239;SDS011;10778;48.962;9.018;2023-09-07T03:53:04;6.38;;;4.28;;
21239;SDS011;10778;48.962;9.018;2023-09-07T03:59:18;5.57;;;4.00;;
21239;SDS011;10778;48.962;9.018;2023-09-07T04:01:59;6.60;;;4.45;;
21239;SDS011;10778;48.962;9.018;2023-09-07T04:08:14;5.03;;;3.70;;
21239;SDS011;10778;48.962;9.018;2023-09-07T04:10:40;4.47;;;3.85;;
21239;SDS011;10778;48.962;9.018;2023-09-07T04:13:06;5.22;;;3.83;;
21239;SDS011;10778;48.962;9.018;2023-09-07T04:15:33;5.20;;;3.88;;
21239;SDS011;10778;48.962;9.018;2023-09-07T04:18:00;4.85;;;4.07;;
21239;SDS011;10778;48.962;9.018;2023-09-07T04:20:25;4.80;;;3.88;;
21239;SDS011;10778;48.962;9.018;2023-09-07T04:22:55;7.07;;;4.50;;
21239;SDS011;10778;48.962;9.018;2023-09-07T04:25:21;6.10;;;4.40;;
21239;SDS011;10778;48.962;9.018;2023-09-07T04:27:47;7.35;;;4.55;;
21239;SDS011;10778;48.962;9.018;2023-09-07T04:30:13;6.18;;;4.57;;
21239;SDS011;10778;48.962;9.018;2023-09-07T04:32:39;7.00;;;4.70;;
21239;SDS011;10778;48.962;9.018;2023-09-07T04:35:06;7.78;;;4.57;;
21239;SDS011;10778;48.962;9.018;2023-09-07T04:37:32;6.18;;;4.63;;
21239;SDS011;10778;48.962;9.018;2023-09-07T04:39:58;5.50;;;4.65;;
21239;SDS011;10778;48.962;9.018;2023-09-07T04:42:24;5.43;;;4.35;;
21239;SDS011;10778;48.962;9.018;2023-09-07T04:44:50;6.07;;;4.40;;
21239;SDS011;10778;48.962;9.018;2023-09-07T04:47:17;6.70;;;4.25;;
21239;SDS011;10778;48.962;9.018;2023-09-07T04:49:48;8.02;;;4.32;;
21239;SDS011;10778;48.962;9.018;2023-09-07T04:52:15;8.27;;;4.43;;
21239;SDS011;10778;48.962;9.018;2023-09-07T04:54:41;7.30;;;4.80;;
21239;SDS011;10778;48.962;9.018;2023-09-07T04:57:07;9.60;;;5.03;;
21239;SDS011;10778;48.962;9.018;2023-09-07T04:59:34;10.20;;;5.00;;
21239;SDS011;10778;48.962;9.018;2023-09-07T05:02:00;7.32;;;4.57;;
21239;SDS011;10778;48.962;9.018;2023-09-07T05:04:27;7.18;;;4.75;;
21239;SDS011;10778;48.962;9.018;2023-09-07T05:06:55;8.20;;;5.03;;
21239;SDS011;10778;48.962;9.018;2023-09-07T05:09:22;8.20;;;5.15;;
21239;SDS011;10778;48.962;9.018;2023-09-07T05:11:49;6.30;;;4.68;;
21239;SDS011;10778;48.962;9.018;2023-09-07T05:14:15;8.80;;;5.25;;
21239;SDS011;10778;48.962;9.018;2023-09-07T05:16:44;6.93;;;5.82;;
21239;SDS011;10778;48.962;9.018;2023-09-07T05:19:11;9.73;;;5.28;;
21239;SDS011;10778;48.962;9.018;2023-09-07T05:21:37;7.22;;;5.43;;
21239;SDS011;10778;48.962;9.018;2023-09-07T05:24:03;6.35;;;5.07;;
21239;SDS011;10778;48.962;9.018;2023-09-07T05:26:29;8.80;;;5.47;;
21239;SDS011;10778;48.962;9.018;2023-09-07T05:28:56;7.82;;;5.07;;
21239;SDS011;10778;48.962;9.018;2023-09-07T05:31:22;7.50;;;5.28;;
21239;SDS011;10778;48.962;9.018;2023-09-07T05:33:48;7.00;;;5.20;;
21239;SDS011;10778;48.962;9.018;2023-09-07T05:36:14;6.78;;;4.95;;
21239;SDS011;10778;48.962;9.018;2023-09-07T05:38:40;8.57;;;5.38;;
21239;SDS011;10778;48.962;9.018;2023-09-07T05:41:06;7.30;;;4.80;;
21239;SDS011;10778;48.962;9.018;2023-09-07T05:43:32;6.93;;;4.88;;
21239;SDS011;10778;48.962;9.018;2023-09-07T05:45:59;6.95;;;4.88;;
21239;SDS011;10778;48.962;9.018;2023-09-07T05:48:25;7.68;;;5.35;;
21239;SDS011;10778;48.962;9.018;2023-09-07T05:50:51;8.18;;;5.22;;
21239;SDS011;10778;48.962;9.018;2023-09-07T05:53:21;6.25;;;4.75;;
21239;SDS011;10778;48.962;9.018;2023-09-07T05:55:47;7.13;;;4.75;;
21239;SDS011;10778;48.962;9.018;2023-09-07T05:58:13;6.85;;;4.85;;
21239;SDS011;10778;48.962;9.018;2023-09-07T06:00:43;6.28;;;4.65;;
21239;SDS011;10778;48.962;9.018;2023-09-07T06:03:09;8.00;;;4.50;;
21239;SDS011;10778;48.962;9.018;2023-09-07T06:05:36;5.95;;;4.22;;
21239;SDS011;10778;48.962;9.018;2023-09-07T06:08:05;8.13;;;4.38;;
21239;SDS011;10778;48.962;9.018;2023-09-07T06:10:35;7.47;;;4.30;;
21239;SDS011;10778;48.962;9.018;2023-09-07T06:13:02;5.70;;;4.40;;
21239;SDS011;10778;48.962;9.018;2023-09-07T06:15:29;6.13;;;4.47;;
21239;SDS011;10778;48.962;9.018;2023-09-07T06:17:55;7.18;;;4.47;;
21239;SDS011;10778;48.962;9.018;2023-09-07T06:20:21;6.80;;;4.93;;
21239;SDS011;10778;48.962;9.018;2023-09-07T06:22:47;8.45;;;4.90;;
21239;SDS011;10778;48.962;9.018;2023-09-07T06:25:15;7.03;;;5.03;;
21239;SDS011;10778;48.962;9.018;2023-09-07T06:27:41;7.65;;;4.97;;
21239;SDS011;10778;48.962;9.018;2023-09-07T06:30:08;7.68;;;5.25;;
21239;SDS011;10778;48.962;9.018;2023-09-07T06:32:35;6.78;;;4.70;;
21239;SDS011;10778;48.962;9.018;2023-09-07T06:35:02;5.28;;;4.78;;
21239;SDS011;10778;48.962;9.018;2023-09-07T06:37:30;7.25;;;4.60;;
21239;SDS011;10778;48.962;9.018;2023-09-07T06:39:56;5.50;;;4.75;;
21239;SDS011;10778;48.962;9.018;2023-09-07T06:42:23;6.70;;;4.75;;
21239;SDS011;10778;48.962;9.018;2023-09-07T06:44:57;6.75;;;4.55;;
21239;SDS011;10778;48.962;9.018;2023-09-07T06:47:23;6.70;;;4.90;;
21239;SDS011;10778;48.962;9.018;2023-09-07T06:49:49;5.43;;;4.35;;
21239;SDS011;10778;48.962;9.018;2023-09-07T06:52:15;6.80;;;4.68;;
21239;SDS011;10778;48.962;9.018;2023-09-07T06:54:42;6.53;;;4.80;;
21239;SDS011;10778;48.962;9.018;2023-09-07T06:57:08;8.35;;;4.68;;
21239;SDS011;10778;48.962;9.018;2023-09-07T06:59:37;7.75;;;4.53;;
21239;SDS011;10778;48.962;9.018;2023-09-07T07:02:03;9.50;;;4.60;;
21239;SDS011;10778;48.962;9.018;2023-09-07T07:04:31;8.73;;;4.38;;
21239;SDS011;10778;48.962;9.018;2023-09-07T07:06:57;7.55;;;4.50;;
21239;SDS011;10778;48.962;9.018;2023-09-07T07:09:23;5.47;;;4.40;;
21239;SDS011;10778;48.962;9.018;2023-09-07T07:11:49;5.45;;;4.63;;
21239;SDS011;10778;48.962;9.018;2023-09-07T07:14:16;5.68;;;4.45;;
21239;SDS011;10778;48.962;9.018;2023-09-07T07:16:43;8.10;;;4.88;;
21239;SDS011;10778;48.962;9.018;2023-09-07T07:19:09;7.32;;;4.75;;
21239;SDS011;10778;48.962;9.018;2023-09-07T07:21:35;8.60;;;5.20;;
21239;SDS011;10778;48.962;9.018;2023-09-07T07:24:03;6.15;;;5.20;;
21239;SDS011;10778;48.962;9.018;2023-09-07T07:26:32;9.10;;;5.05;;
21239;SDS011;10778;48.962;9.018;2023-09-07T07:28:58;9.68;;;4.90;;
21239;SDS011;10778;48.962;9.018;2023-09-07T07:31:25;10.00;;;5.20;;
21239;SDS011;10778;48.962;9.018;2023-09-07T07:33:51;7.93;;;5.03;;
21239;SDS011;10778;48.962;9.018;2023-09-07T07:36:18;7.45;;;5.10;;
21239;SDS011;10778;48.962;9.018;2023-09-07T07:38:44;7.15;;;4.45;;
21239;SDS011;10778;48.962;9.018;2023-09-07T07:41:10;11.35;;;5.05;;
21239;SDS011;10778;48.962;9.018;2023-09-07T07:43:36;5.38;;;4.35;;
21239;SDS011;10778;48.962;9.018;2023-09-07T07:46:03;7.00;;;4.90;;
21239;SDS011;10778;48.962;9.018;2023-09-07T07:48:30;7.32;;;4.90;;
21239;SDS011;10778;48.962;9.018;2023-09-07T07:50:56;11.82;;;5.20;;
21239;SDS011;10778;48.962;9.018;2023-09-07T07:53:23;8.70;;;5.20;;
21239;SDS011;10778;48.962;9.018;2023-09-07T07:55:50;8.02;;;4.97;;
21239;SDS011;10778;48.962;9.018;2023-09-07T07:58:19;7.35;;;5.10;;
21239;SDS011;10778;48.962;9.018;2023-09-07T08:00:45;9.93;;;5.00;;
21239;SDS011;10778;48.962;9.018;2023-09-07T08:03:15;7.78;;;4.60;;
21239;SDS011;10778;48.962;9.018;2023-09-07T08:05:41;10.82;;;4.80;;
21239;SDS011;10778;48.962;9.018;2023-09-07T08:08:08;10.25;;;5.55;;
21239;SDS011;10778;48.962;9.018;2023-09-07T08:10:34;7.75;;;4.75;;
21239;SDS011;10778;48.962;9.018;2023-09-07T08:13:05;5.97;;;4.93;;
21239;SDS011;10778;48.962;9.018;2023-09-07T08:15:32;8.52;;;4.75;;
21239;SDS011;10778;48.962;9.018;2023-09-07T08:17:59;5.28;;;4.78;;
21239;SDS011;10778;48.962;9.018;2023-09-07T08:20:26;5.80;;;4.72;;
21239;SDS011;10778;48.962;9.018;2023-09-07T08:22:53;6.88;;;5.15;;
21239;SDS011;10778;48.962;9.018;2023-09-07T08:25:19;8.38;;;4.57;;
21239;SDS011;10778;48.962;9.018;2023-09-07T08:27:46;6.75;;;5.07;;
21239;SDS011;10778;48.962;9.018;2023-09-07T08:30:13;6.93;;;4.18;;
21239;SDS011;10778;48.962;9.018;2023-09-07T08:32:42;7.40;;;4.95;;
21239;SDS011;10778;48.962;9.018;2023-09-07T08:35:10;5.45;;;4.53;;
21239;SDS011;10778;48.962;9.018;2023-09-07T08:37:39;6.00;;;4.78;;
21239;SDS011;10778;48.962;9.018;2023-09-07T08:40:05;5.20;;;4.70;;
21239;SDS011;10778;48.962;9.018;2023-09-07T08:42:36;5.85;;;5.10;;
21239;SDS011;10778;48.962;9.018;2023-09-07T08:45:04;7.53;;;4.75;;
21239;SDS011;10778;48.962;9.018;2023-09-07T08:47:34;7.68;;;5.35;;
21239;SDS011;10778;48.962;9.018;2023-09-07T08:50:01;6.18;;;4.70;;
21239;SDS011;10778;48.962;9.018;2023-09-07T08:52:29;5.47;;;4.97;;
21239;SDS011;10778;48.962;9.018;2023-09-07T08:54:56;8.38;;;4.82;;
21239;SDS011;10778;48.962;9.018;2023-09-07T08:57:24;6.13;;;4.95;;
21239;SDS011;10778;48.962;9.018;2023-09-07T08:59:50;8.63;;;4.90;;
21239;SDS011;10778;48.962;9.018;2023-09-07T09:02:16;8.10;;;5.10;;
21239;SDS011;10778;48.962;9.018;2023-09-07T09:04:42;7.07;;;5.05;;
21239;SDS011;10778;48.962;9.018;2023-09-07T09:07:09;10.63;;;4.97;;
21239;SDS011;10778;48.962;9.018;2023-09-07T09:09:34;6.03;;;4.90;;
21239;SDS011;10778;48.962;9.018;2023-09-07T09:12:10;6.63;;;5.35;;
21239;SDS011;10778;48.962;9.018;2023-09-07T09:14:39;6.00;;;4.97;;
21239;SDS011;10778;48.962;9.018;2023-09-07T09:17:12;9.00;;;5.35;;
21239;SDS011;10778;48.962;9.018;2023-09-07T09:19:39;6.40;;;5.20;;
21239;SDS011;10778;48.962;9.018;2023-09-07T09:22:06;7.70;;;5.70;;
21239;SDS011;10778;48.962;9.018;2023-09-07T09:24:33;6.43;;;5.55;;
21239;SDS011;10778;48.962;9.018;2023-09-07T09:27:00;6.88;;;5.30;;
21239;SDS011;10778;48.962;9.018;2023-09-07T09:29:26;9.38;;;5.97;;
21239;SDS011;10778;48.962;9.018;2023-09-07T09:31:53;7.25;;;5.50;;
21239;SDS011;10778;48.962;9.018;2023-09-07T09:34:19;7.35;;;5.57;;
21239;SDS011;10778;48.962;9.018;2023-09-07T09:36:46;6.80;;;5.32;;
21239;SDS011;10778;48.962;9.018;2023-09-07T09:39:22;6.53;;;5.10;;
21239;SDS011;10778;48.962;9.018;2023-09-07T09:41:49;7.97;;;5.10;;
21239;SDS011;10778;48.962;9.018;2023-09-07T09:44:16;6.18;;;5.57;;
21239;SDS011;10778;48.962;9.018;2023-09-07T09:46:42;5.75;;;5.05;;
21239;SDS011;10778;48.962;9.018;2023-09-07T09:49:09;8.30;;;5.00;;
21239;SDS011;10778;48.962;9.018;2023-09-07T09:51:36;8.27;;;5.30;;
21239;SDS011;10778;48.962;9.018;2023-09-07T09:54:06;6.50;;;5.80;;
21239;SDS011;10778;48.962;9.018;2023-09-07T09:56:31;6.25;;;5.30;;
21239;SDS011;10778;48.962;9.018;2023-09-07T09:58:58;7.03;;;5.00;;
21239;SDS011;10778;48.962;9.018;2023-09-07T10:01:24;6.88;;;5.20;;
21239;SDS011;10778;48.962;9.018;2023-09-07T10:03:50;6.28;;;5.10;;
21239;SDS011;10778;48.962;9.018;2023-09-07T10:06:28;6.40;;;5.00;;
21239;SDS011;10778;48.962;9.018;2023-09-07T10:11:32;6.68;;;5.15;;
21239;SDS011;10778;48.962;9.018;2023-09-07T10:13:59;7.18;;;4.97;;
21239;SDS011;10778;48.962;9.018;2023-09-07T10:16:29;7.38;;;5.13;;
21239;SDS011;10778;48.962;9.018;2023-09-07T10:21:50;5.30;;;4.30;;
21239;SDS011;10778;48.962;9.018;2023-09-07T10:24:24;6.22;;;4.55;;
21239;SDS011;10778;48.962;9.018;2023-09-07T10:27:01;5.90;;;5.10;;
21239;SDS011;10778;48.962;9.018;2023-09-07T10:29:28;5.53;;;4.80;;
21239;SDS011;10778;48.962;9.018;2023-09-07T10:31:54;9.00;;;4.72;;
21239;SDS011;10778;48.962;9.018;2023-09-07T10:34:20;5.18;;;4.63;;
21239;SDS011;10778;48.962;9.018;2023-09-07T10:36:48;8.38;;;5.15;;
21239;SDS011;10778;48.962;9.018;2023-09-07T10:39:21;7.68;;;4.90;;
21239;SDS011;10778;48.962;9.018;2023-09-07T10:41:47;5.40;;;4.43;;
21239;SDS011;10778;48.962;9.018;2023-09-07T10:44:13;4.53;;;4.13;;
21239;SDS011;10778;48.962;9.018;2023-09-07T10:46:39;5.13;;;4.60;;
21239;SDS011;10778;48.962;9.018;2023-09-07T10:49:07;9.85;;;5.13;;
21239;SDS011;10778;48.962;9.018;2023-09-07T10:51:41;7.35;;;4.80;;
21239;SDS011;10778;48.962;9.018;2023-09-07T10:54:28;7.78;;;5.00;;
21239;SDS011;10778;48.962;9.018;2023-09-07T10:56:54;5.22;;;4.55;;
21239;SDS011;10778;48.962;9.018;2023-09-07T10:59:23;5.82;;;4.43;;
21239;SDS011;10778;48.962;9.018;2023-09-07T11:01:53;4.97;;;4.47;;
21239;SDS011;10778;48.962;9.018;2023-09-07T11:04:19;7.30;;;5.18;;
21239;SDS011;10778;48.962;9.018;2023-09-07T11:06:46;6.45;;;4.60;;
21239;SDS011;10778;48.962;9.018;2023-09-07T11:09:12;5.10;;;4.60;;
21239;SDS011;10778;48.962;9.018;2023-09-07T11:11:38;4.80;;;4.10;;
21239;SDS011;10778;48.962;9.018;2023-09-07T11:14:04;5.28;;;4.18;;
21239;SDS011;10778;48.962;9.018;2023-09-07T11:16:34;5.75;;;4.32;;
21239;SDS011;10778;48.962;9.018;2023-09-07T11:19:04;6.13;;;4.18;;
21239;SDS011;10778;48.962;9.018;2023-09-07T11:21:31;5.82;;;4.28;;
21239;SDS011;10778;48.962;9.018;2023-09-07T11:24:00;6.40;;;4.57;;
21239;SDS011;10778;48.962;9.018;2023-09-07T11:26:26;5.63;;;4.70;;
21239;SDS011;10778;48.962;9.018;2023-09-07T11:28:52;5.07;;;4.43;;
21239;SDS011;10778;48.962;9.018;2023-09-07T11:31:19;4.68;;;4.18;;
21239;SDS011;10778;48.962;9.018;2023-09-07T11:33:48;4.70;;;3.97;;
21239;SDS011;10778;48.962;9.018;2023-09-07T11:36:15;5.20;;;4.53;;
21239;SDS011;10778;48.962;9.018;2023-09-07T11:38:42;6.63;;;4.15;;
21239;SDS011;10778;48.962;9.018;2023-09-07T11:41:09;6.30;;;4.32;;
21239;SDS011;10778;48.962;9.018;2023-09-07T11:43:35;6.05;;;4.20;;
21239;SDS011;10778;48.962;9.018;2023-09-07T11:46:03;6.07;;;4.40;;
21239;SDS011;10778;48.962;9.018;2023-09-07T11:48:29;4.68;;;4.15;;
21239;SDS011;10778;48.962;9.018;2023-09-07T11:50:57;5.90;;;4.57;;
21239;SDS011;10778;48.962;9.018;2023-09-07T11:53:24;4.72;;;4.22;;
21239;SDS011;10778;48.962;9.018;2023-09-07T11:55:50;6.68;;;4.30;;
21239;SDS011;10778;48.962;9.018;2023-09-07T11:58:16;5.95;;;4.10;;
21239;SDS011;10778;48.962;9.018;2023-09-07T12:00:42;6.15;;;4.35;;
21239;SDS011;10778;48.962;9.018;2023-09-07T12:03:09;6.18;;;4.35;;
21239;SDS011;10778;48.962;9.018;2023-09-07T12:05:35;6.22;;;4.10;;
21239;SDS011;10778;48.962;9.018;2023-09-07T12:08:03;5.88;;;4.38;;
21239;SDS011;10778;48.962;9.018;2023-09-07T12:10:29;5.22;;;4.13;;
21239;SDS011;10778;48.962;9.018;2023-09-07T12:12:55;5.00;;;4.50;;
21239;SDS011;10778;48.962;9.018;2023-09-07T12:15:21;6.05;;;4.20;;
21239;SDS011;10778;48.962;9.018;2023-09-07T12:17:47;5.68;;;3.65;;
21239;SDS011;10778;48.962;9.018;2023-09-07T12:20:15;5.72;;;4.07;;
21239;SDS011;10778;48.962;9.018;2023-09-07T12:22:40;4.45;;;4.00;;
21239;SDS011;10778;48.962;9.018;2023-09-07T12:25:07;4.35;;;3.95;;
21239;SDS011;10778;48.962;9.018;2023-09-07T12:27:33;4.97;;;3.83;;
21239;SDS011;10778;48.962;9.018;2023-09-07T12:30:00;4.78;;;3.92;;
21239;SDS011;10778;48.962;9.018;2023-09-07T12:32:28;4.60;;;4.07;;
21239;SDS011;10778;48.962;9.018;2023-09-07T12:34:54;5.05;;;4.30;;
21239;SDS011;10778;48.962;9.018;2023-09-07T12:37:20;5.78;;;4.10;;
21239;SDS011;10778;48.962;9.018;2023-09-07T12:39:49;4.57;;;3.88;;
21239;SDS011;10778;48.962;9.018;2023-09-07T12:42:16;6.03;;;3.90;;
21239;SDS011;10778;48.962;9.018;2023-09-07T12:44:43;7.07;;;3.88;;
21239;SDS011;10778;48.962;9.018;2023-09-07T12:47:10;7.28;;;4.03;;
21239;SDS011;10778;48.962;9.018;2023-09-07T12:49:36;4.90;;;4.00;;
21239;SDS011;10778;48.962;9.018;2023-09-07T12:52:02;7.05;;;4.10;;
21239;SDS011;10778;48.962;9.018;2023-09-07T12:54:34;5.70;;;4.03;;
21239;SDS011;10778;48.962;9.018;2023-09-07T12:57:03;5.03;;;4.20;;
21239;SDS011;10778;48.962;9.018;2023-09-07T12:59:29;5.13;;;4.07;;
21239;SDS011;10778;48.962;9.018;2023-09-07T13:01:55;4.20;;;3.80;;
21239;SDS011;10778;48.962;9.018;2023-09-07T13:04:21;4.88;;;3.92;;
21239;SDS011;10778;48.962;9.018;2023-09-07T13:06:48;4.43;;;3.60;;
21239;SDS011;10778;48.962;9.018;2023-09-07T13:09:13;4.72;;;4.00;;
21239;SDS011;10778;48.962;9.018;2023-09-07T13:11:39;5.15;;;3.78;;
21239;SDS011;10778;48.962;9.018;2023-09-07T13:14:06;5.18;;;3.85;;
21239;SDS011;10778;48.962;9.018;2023-09-07T13:16:34;4.32;;;3.70;;
21239;SDS011;10778;48.962;9.018;2023-09-07T13:19:00;8.15;;;4.22;;
21239;SDS011;10778;48.962;9.018;2023-09-07T13:21:26;5.75;;;3.72;;
21239;SDS011;10778;48.962;9.018;2023-09-07T13:23:52;5.32;;;3.67;;
21239;SDS011;10778;48.962;9.018;2023-09-07T13:26:18;5.43;;;3.92;;
21239;SDS011;10778;48.962;9.018;2023-09-07T13:28:44;4.30;;;3.90;;
21239;SDS011;10778;48.962;9.018;2023-09-07T13:31:10;5.65;;;3.97;;
21239;SDS011;10778;48.962;9.018;2023-09-07T13:33:36;5.60;;;3.60;;
21239;SDS011;10778;48.962;9.018;2023-09-07T13:36:02;6.45;;;3.83;;
21239;SDS011;10778;48.962;9.018;2023-09-07T13:38:28;4.85;;;3.70;;
21239;SDS011;10778;48.962;9.018;2023-09-07T13:40:54;6.88;;;3.78;;
21239;SDS011;10778;48.962;9.018;2023-09-07T13:43:21;5.22;;;3.90;;
21239;SDS011;10778;48.962;9.018;2023-09-07T13:45:47;4.20;;;3.40;;
21239;SDS011;10778;48.962;9.018;2023-09-07T13:48:13;6.35;;;3.60;;
21239;SDS011;10778;48.962;9.018;2023-09-07T13:50:39;7.22;;;3.90;;
21239;SDS011;10778;48.962;9.018;2023-09-07T13:53:05;6.82;;;3.58;;
21239;SDS011;10778;48.962;9.018;2023-09-07T13:55:31;6.47;;;3.80;;
21239;SDS011;10778;48.962;9.018;2023-09-07T13:57:57;6.63;;;3.80;;
21239;SDS011;10778;48.962;9.018;2023-09-07T14:00:23;4.07;;;3.70;;
21239;SDS011;10778;48.962;9.018;2023-09-07T14:02:49;7.15;;;3.67;;
21239;SDS011;10778;48.962;9.018;2023-09-07T14:05:15;6.43;;;3.67;;
21239;SDS011;10778;48.962;9.018;2023-09-07T14:07:41;6.47;;;3.95;;
21239;SDS011;10778;48.962;9.018;2023-09-07T14:10:07;5.07;;;3.50;;
21239;SDS011;10778;48.962;9.018;2023-09-07T14:12:33;4.65;;;3.78;;
21239;SDS011;10778;48.962;9.018;2023-09-07T14:14:59;3.90;;;3.60;;
21239;SDS011;10778;48.962;9.018;2023-09-07T14:17:25;4.88;;;3.97;;
21239;SDS011;10778;48.962;9.018;2023-09-07T14:19:51;5.30;;;3.65;;
21239;SDS011;10778;48.962;9.018;2023-09-07T14:22:17;5.30;;;3.58;;
21239;SDS011;10778;48.962;9.018;2023-09-07T14:24:43;5.00;;;3.80;;
21239;SDS011;10778;48.962;9.018;2023-09-07T14:27:09;5.25;;;3.50;;
21239;SDS011;10778;48.962;9.018;2023-09-07T14:29:35;6.22;;;3.97;;
21239;SDS011;10778;48.962;9.018;2023-09-07T14:32:02;4.35;;;3.95;;
21239;SDS011;10778;48.962;9.018;2023-09-07T14:34:28;4.18;;;3.78;;
21239;SDS011;10778;48.962;9.018;2023-09-07T14:36:54;4.88;;;3.50;;
21239;SDS011;10778;48.962;9.018;2023-09-07T14:39:21;4.25;;;3.80;;
21239;SDS011;10778;48.962;9.018;2023-09-07T14:41:50;4.10;;;3.80;;
21239;SDS011;10778;48.962;9.018;2023-09-07T14:44:19;4.93;;;3.53;;
21239;SDS011;10778;48.962;9.018;2023-09-07T14:46:45;4.30;;;3.50;;
21239;SDS011;10778;48.962;9.018;2023-09-07T14:49:15;5.00;;;3.85;;
21239;SDS011;10778;48.962;9.018;2023-09-07T14:51:43;4.85;;;3.80;;
21239;SDS011;10778;48.962;9.018;2023-09-07T14:54:10;4.45;;;3.78;;
21239;SDS011;10778;48.962;9.018;2023-09-07T14:56:38;5.28;;;4.20;;
21239;SDS011;10778;48.962;9.018;2023-09-07T14:59:05;6.70;;;3.72;;
21239;SDS011;10778;48.962;9.018;2023-09-07T15:01:32;4.10;;;3.70;;
21239;SDS011;10778;48.962;9.018;2023-09-07T15:03:58;5.50;;;3.55;;
21239;SDS011;10778;48.962;9.018;2023-09-07T15:06:24;4.38;;;3.92;;
21239;SDS011;10778;48.962;9.018;2023-09-07T15:08:50;4.75;;;3.58;;
21239;SDS011;10778;48.962;9.018;2023-09-07T15:11:16;4.68;;;3.42;;